sensor_id;sensor_type;location;lat;lon;timestamp;pressure;altitude;pressure_sealevel;temperature;humidity
73338;BME280;61575;49.908;35.556;2023-02-22T00:02:57;97785.53;;;-1.49;80.40
73338;BME280;61575;49.908;35.556;2023-02-22T00:06:02;97787.31;;;-1.59;80.13
73338;BME280;61575;49.908;35.556;2023-02-22T00:09:05;97801.56;;;-1.71;80.76
73338;BME280;61575;49.908;35.556;2023-02-22T00:12:09;97802.53;;;-1.72;80.43
73338;BME280;61575;49.908;35.556;2023-02-22T00:15:13;97801.28;;;-1.78;79.89
73338;BME280;61575;49.908;35.556;2023-02-22T00:18:18;97797.34;;;-1.93;79.72
73338;BME280;61575;49.908;35.556;2023-02-22T00:21:20;97801.25;;;-1.87;79.67
73338;BME280;61575;49.908;35.556;2023-02-22T00:24:23;97813.69;;;-1.89;79.65
73338;BME280;61575;49.908;35.556;2023-02-22T00:27:25;97815.06;;;-1.95;79.45
73338;BME280;61575;49.908;35.556;2023-02-22T00:30:29;97829.44;;;-1.99;79.65
73338;BME280;61575;49.908;35.556;2023-02-22T00:33:32;97833.97;;;-2.11;79.93
73338;BME280;61575;49.908;35.556;2023-02-22T00:36:34;97839.78;;;-2.07;79.81
73338;BME280;61575;49.908;35.556;2023-02-22T00:39:36;97847.50;;;-2.15;79.58
73338;BME280;61575;49.908;35.556;2023-02-22T00:42:38;97867.84;;;-2.17;79.67
73338;BME280;61575;49.908;35.556;2023-02-22T00:45:40;97871.13;;;-2.25;79.74
73338;BME280;61575;49.908;35.556;2023-02-22T00:48:42;97874.97;;;-2.29;79.11
73338;BME280;61575;49.908;35.556;2023-02-22T00:51:45;97888.78;;;-2.36;78.59
73338;BME280;61575;49.908;35.556;2023-02-22T00:54:46;97891.06;;;-2.64;78.34
73338;BME280;61575;49.908;35.556;2023-02-22T00:57:48;97893.38;;;-2.70;78.91
73338;BME280;61575;49.908;35.556;2023-02-22T01:00:51;97896.63;;;-2.78;79.30
73338;BME280;61575;49.908;35.556;2023-02-22T01:03:53;97908.50;;;-2.63;79.03
73338;BME280;61575;49.908;35.556;2023-02-22T01:06:55;97913.22;;;-2.78;79.55
73338;BME280;61575;49.908;35.556;2023-02-22T01:10:01;97919.13;;;-2.85;79.05
73338;BME280;61575;49.908;35.556;2023-02-22T01:13:05;97919.13;;;-2.85;79.15
73338;BME280;61575;49.908;35.556;2023-02-22T01:16:10;97940.72;;;-2.82;79.78
73338;BME280;61575;49.908;35.556;2023-02-22T01:19:12;97940.09;;;-2.74;79.49
73338;BME280;61575;49.908;35.556;2023-02-22T01:22:14;97956.44;;;-2.70;79.47
73338;BME280;61575;49.908;35.556;2023-02-22T01:25:19;97964.06;;;-2.67;79.77
73338;BME280;61575;49.908;35.556;2023-02-22T01:28:22;97969.66;;;-2.61;79.76
73338;BME280;61575;49.908;35.556;2023-02-22T01:31:24;97972.78;;;-2.67;79.83
73338;BME280;61575;49.908;35.556;2023-02-22T01:34:26;97980.88;;;-2.59;79.72
73338;BME280;61575;49.908;35.556;2023-02-22T01:37:28;97977.56;;;-2.72;79.82
73338;BME280;61575;49.908;35.556;2023-02-22T01:40:33;97991.41;;;-2.70;79.95
73338;BME280;61575;49.908;35.556;2023-02-22T01:43:37;97990.13;;;-2.76;79.95
73338;BME280;61575;49.908;35.556;2023-02-22T01:46:39;98003.97;;;-2.74;79.75
73338;BME280;61575;49.908;35.556;2023-02-22T01:49:44;98010.19;;;-2.75;79.47
73338;BME280;61575;49.908;35.556;2023-02-22T01:52:49;98020.22;;;-2.80;79.50
73338;BME280;61575;49.908;35.556;2023-02-22T01:55:51;98034.31;;;-2.81;78.87
73338;BME280;61575;49.908;35.556;2023-02-22T01:58:59;98037.88;;;-2.70;78.52
73338;BME280;61575;49.908;35.556;2023-02-22T02:02:02;98058.22;;;-2.84;78.13
73338;BME280;61575;49.908;35.556;2023-02-22T02:05:08;98058.56;;;-2.88;77.91
73338;BME280;61575;49.908;35.556;2023-02-22T02:11:37;98078.53;;;-3.08;77.85
73338;BME280;61575;49.908;35.556;2023-02-22T02:14:43;98082.09;;;-3.09;77.83
73338;BME280;61575;49.908;35.556;2023-02-22T02:17:47;98101.44;;;-3.10;77.00
73338;BME280;61575;49.908;35.556;2023-02-22T02:21:36;98100.38;;;-3.08;77.26
73338;BME280;61575;49.908;35.556;2023-02-22T02:25:06;98111.22;;;-3.12;76.74
73338;BME280;61575;49.908;35.556;2023-02-22T02:38:33;98128.16;;;-3.16;76.06
73338;BME280;61575;49.908;35.556;2023-02-22T02:41:47;98140.34;;;-3.26;75.85
73338;BME280;61575;49.908;35.556;2023-02-22T02:44:55;98157.75;;;-3.25;76.10
73338;BME280;61575;49.908;35.556;2023-02-22T02:48:01;98163.47;;;-3.31;75.62
73338;BME280;61575;49.908;35.556;2023-02-22T02:51:08;98165.50;;;-3.35;75.72
73338;BME280;61575;49.908;35.556;2023-02-22T02:54:12;98182.66;;;-3.42;75.13
73338;BME280;61575;49.908;35.556;2023-02-22T02:57:15;98181.47;;;-3.38;74.99
73338;BME280;61575;49.908;35.556;2023-02-22T03:00:19;98182.41;;;-3.39;75.58
73338;BME280;61575;49.908;35.556;2023-02-22T03:07:09;98193.94;;;-3.53;75.30
73338;BME280;61575;49.908;35.556;2023-02-22T03:13:36;98222.94;;;-3.54;74.57
73338;BME280;61575;49.908;35.556;2023-02-22T03:16:51;98231.38;;;-3.62;73.80
73338;BME280;61575;49.908;35.556;2023-02-22T03:20:04;98237.50;;;-3.74;74.67
73338;BME280;61575;49.908;35.556;2023-02-22T03:27:09;98245.09;;;-3.82;74.40
73338;BME280;61575;49.908;35.556;2023-02-22T03:30:29;98248.91;;;-3.86;74.25
73338;BME280;61575;49.908;35.556;2023-02-22T03:33:36;98262.41;;;-3.80;74.42
73338;BME280;61575;49.908;35.556;2023-02-22T03:36:50;98271.78;;;-3.88;74.15
73338;BME280;61575;49.908;35.556;2023-02-22T03:39:59;98286.19;;;-4.07;74.29
73338;BME280;61575;49.908;35.556;2023-02-22T03:43:12;98285.94;;;-4.40;72.92
73338;BME280;61575;49.908;35.556;2023-02-22T03:46:17;98296.00;;;-4.59;73.08
73338;BME280;61575;49.908;35.556;2023-02-22T03:49:36;98300.00;;;-4.66;74.02
73338;BME280;61575;49.908;35.556;2023-02-22T03:52:41;98313.59;;;-4.74;74.11
73338;BME280;61575;49.908;35.556;2023-02-22T03:55:51;98320.41;;;-4.84;73.88
73338;BME280;61575;49.908;35.556;2023-02-22T03:58:56;98331.53;;;-4.81;74.00
73338;BME280;61575;49.908;35.556;2023-02-22T04:01:58;98328.56;;;-4.89;73.20
73338;BME280;61575;49.908;35.556;2023-02-22T04:05:00;98340.94;;;-4.91;73.68
73338;BME280;61575;49.908;35.556;2023-02-22T04:08:03;98345.13;;;-4.88;72.80
73338;BME280;61575;49.908;35.556;2023-02-22T04:11:07;98344.50;;;-4.92;72.81
73338;BME280;61575;49.908;35.556;2023-02-22T04:14:09;98337.69;;;-4.94;72.75
73338;BME280;61575;49.908;35.556;2023-02-22T04:17:11;98345.22;;;-4.90;72.43
73338;BME280;61575;49.908;35.556;2023-02-22T04:20:14;98353.72;;;-4.86;73.09
73338;BME280;61575;49.908;35.556;2023-02-22T04:23:38;98355.50;;;-4.74;72.42
73338;BME280;61575;49.908;35.556;2023-02-22T04:26:41;98369.44;;;-4.74;72.83
73338;BME280;61575;49.908;35.556;2023-02-22T04:29:44;98372.59;;;-4.69;72.68
73338;BME280;61575;49.908;35.556;2023-02-22T04:32:47;98381.94;;;-4.64;72.62
73338;BME280;61575;49.908;35.556;2023-02-22T04:35:52;98388.31;;;-4.69;72.32
73338;BME280;61575;49.908;35.556;2023-02-22T04:38:54;98386.31;;;-4.65;72.38
73338;BME280;61575;49.908;35.556;2023-02-22T04:41:56;98394.50;;;-4.70;72.63
73338;BME280;61575;49.908;35.556;2023-02-22T04:44:59;98398.16;;;-4.59;72.91
73338;BME280;61575;49.908;35.556;2023-02-22T04:48:01;98408.44;;;-4.56;71.97
73338;BME280;61575;49.908;35.556;2023-02-22T04:51:03;98406.56;;;-4.54;72.44
73338;BME280;61575;49.908;35.556;2023-02-22T04:54:06;98407.19;;;-4.63;72.20
73338;BME280;61575;49.908;35.556;2023-02-22T04:57:10;98412.41;;;-4.63;71.75
73338;BME280;61575;49.908;35.556;2023-02-22T05:00:16;98428.66;;;-4.58;72.42
73338;BME280;61575;49.908;35.556;2023-02-22T05:03:18;98429.19;;;-4.53;72.47
73338;BME280;61575;49.908;35.556;2023-02-22T05:06:20;98439.47;;;-4.50;73.02
73338;BME280;61575;49.908;35.556;2023-02-22T05:09:22;98441.56;;;-4.55;72.93
73338;BME280;61575;49.908;35.556;2023-02-22T05:12:26;98453.53;;;-4.51;72.83
73338;BME280;61575;49.908;35.556;2023-02-22T05:15:28;98451.75;;;-4.51;72.89
73338;BME280;61575;49.908;35.556;2023-02-22T05:18:30;98454.56;;;-4.54;73.52
73338;BME280;61575;49.908;35.556;2023-02-22T05:21:32;98465.69;;;-4.50;74.21
73338;BME280;61575;49.908;35.556;2023-02-22T05:24:34;98467.56;;;-4.52;74.70
73338;BME280;61575;49.908;35.556;2023-02-22T05:27:36;98472.81;;;-4.40;74.86
73338;BME280;61575;49.908;35.556;2023-02-22T05:30:38;98475.34;;;-4.38;74.72
73338;BME280;61575;49.908;35.556;2023-02-22T05:33:40;98482.25;;;-4.37;74.90
73338;BME280;61575;49.908;35.556;2023-02-22T05:36:42;98495.44;;;-4.51;76.26
73338;BME280;61575;49.908;35.556;2023-02-22T05:39:44;98513.03;;;-4.53;76.11
73338;BME280;61575;49.908;35.556;2023-02-22T05:42:48;98519.63;;;-4.60;76.71
73338;BME280;61575;49.908;35.556;2023-02-22T05:45:50;98538.06;;;-4.62;75.19
73338;BME280;61575;49.908;35.556;2023-02-22T05:48:52;98542.91;;;-4.97;73.07
73338;BME280;61575;49.908;35.556;2023-02-22T05:51:54;98556.97;;;-5.12;73.02
73338;BME280;61575;49.908;35.556;2023-02-22T05:55:00;98556.97;;;-5.12;72.38
73338;BME280;61575;49.908;35.556;2023-02-22T05:58:02;98562.69;;;-5.20;72.24
73338;BME280;61575;49.908;35.556;2023-02-22T06:01:06;98571.38;;;-5.19;70.92
73338;BME280;61575;49.908;35.556;2023-02-22T06:04:08;98579.31;;;-5.21;70.34
73338;BME280;61575;49.908;35.556;2023-02-22T06:07:10;98584.44;;;-5.05;70.45
73338;BME280;61575;49.908;35.556;2023-02-22T06:10:12;98588.16;;;-4.81;70.21
73338;BME280;61575;49.908;35.556;2023-02-22T06:13:14;98596.78;;;-4.93;69.37
73338;BME280;61575;49.908;35.556;2023-02-22T06:16:16;98601.16;;;-4.93;67.34
73338;BME280;61575;49.908;35.556;2023-02-22T06:19:18;98601.81;;;-4.90;66.95
73338;BME280;61575;49.908;35.556;2023-02-22T06:22:20;98613.81;;;-5.00;66.32
73338;BME280;61575;49.908;35.556;2023-02-22T06:25:27;98619.50;;;-5.08;65.54
73338;BME280;61575;49.908;35.556;2023-02-22T06:28:31;98620.06;;;-5.03;64.87
73338;BME280;61575;49.908;35.556;2023-02-22T06:31:34;98627.06;;;-5.03;64.64
73338;BME280;61575;49.908;35.556;2023-02-22T06:34:36;98628.56;;;-4.99;64.28
73338;BME280;61575;49.908;35.556;2023-02-22T06:37:38;98633.63;;;-4.96;64.67
73338;BME280;61575;49.908;35.556;2023-02-22T06:40:40;98637.72;;;-4.92;63.71
73338;BME280;61575;49.908;35.556;2023-02-22T06:43:42;98636.13;;;-4.80;64.18
73338;BME280;61575;49.908;35.556;2023-02-22T06:46:48;98639.22;;;-4.74;64.08
73338;BME280;61575;49.908;35.556;2023-02-22T06:49:53;98642.94;;;-4.63;63.21
73338;BME280;61575;49.908;35.556;2023-02-22T06:52:55;98648.91;;;-4.61;63.48
73338;BME280;61575;49.908;35.556;2023-02-22T06:55:57;98650.59;;;-4.60;63.27
73338;BME280;61575;49.908;35.556;2023-02-22T06:58:59;98664.31;;;-4.43;63.13
73338;BME280;61575;49.908;35.556;2023-02-22T07:02:03;98668.47;;;-4.26;62.65
73338;BME280;61575;49.908;35.556;2023-02-22T07:05:05;98661.00;;;-4.32;62.46
73338;BME280;61575;49.908;35.556;2023-02-22T07:08:07;98676.59;;;-4.16;62.04
73338;BME280;61575;49.908;35.556;2023-02-22T07:11:10;98678.34;;;-4.03;61.32
73338;BME280;61575;49.908;35.556;2023-02-22T07:14:12;98676.84;;;-3.80;61.68
73338;BME280;61575;49.908;35.556;2023-02-22T07:17:16;98679.84;;;-3.46;61.43
73338;BME280;61575;49.908;35.556;2023-02-22T07:20:19;98676.81;;;-3.40;60.87
73338;BME280;61575;49.908;35.556;2023-02-22T07:23:21;98682.13;;;-3.54;60.03
73338;BME280;61575;49.908;35.556;2023-02-22T07:26:25;98687.28;;;-3.53;60.08
73338;BME280;61575;49.908;35.556;2023-02-22T07:29:27;98685.03;;;-3.19;59.83
73338;BME280;61575;49.908;35.556;2023-02-22T07:32:29;98694.13;;;-3.38;59.90
73338;BME280;61575;49.908;35.556;2023-02-22T07:35:33;98703.69;;;-3.36;59.42
73338;BME280;61575;49.908;35.556;2023-02-22T07:38:39;98700.34;;;-3.13;59.14
73338;BME280;61575;49.908;35.556;2023-02-22T07:41:41;98707.72;;;-3.18;59.29
73338;BME280;61575;49.908;35.556;2023-02-22T07:44:55;98704.66;;;-2.99;58.94
73338;BME280;61575;49.908;35.556;2023-02-22T07:47:58;98696.69;;;-3.11;58.04
73338;BME280;61575;49.908;35.556;2023-02-22T07:51:01;98715.59;;;-3.06;58.04
73338;BME280;61575;49.908;35.556;2023-02-22T07:54:02;98721.47;;;-3.02;57.89
73338;BME280;61575;49.908;35.556;2023-02-22T07:57:04;98724.63;;;-2.97;58.48
73338;BME280;61575;49.908;35.556;2023-02-22T08:00:07;98730.09;;;-2.75;57.58
73338;BME280;61575;49.908;35.556;2023-02-22T08:03:15;98726.50;;;-2.48;56.53
73338;BME280;61575;49.908;35.556;2023-02-22T08:06:17;98731.31;;;-2.29;55.61
73338;BME280;61575;49.908;35.556;2023-02-22T08:09:21;98741.16;;;-2.20;55.95
73338;BME280;61575;49.908;35.556;2023-02-22T08:12:25;98744.78;;;-2.47;56.11
73338;BME280;61575;49.908;35.556;2023-02-22T08:15:30;98744.06;;;-2.61;56.39
73338;BME280;61575;49.908;35.556;2023-02-22T08:18:32;98754.91;;;-2.91;57.62
73338;BME280;61575;49.908;35.556;2023-02-22T08:21:34;98760.34;;;-3.07;57.47
73338;BME280;61575;49.908;35.556;2023-02-22T08:24:36;98771.78;;;-3.08;58.38
73338;BME280;61575;49.908;35.556;2023-02-22T08:27:38;98770.31;;;-3.12;58.10
73338;BME280;61575;49.908;35.556;2023-02-22T08:30:40;98774.38;;;-3.33;58.03
73338;BME280;61575;49.908;35.556;2023-02-22T08:33:48;98780.09;;;-3.01;58.41
73338;BME280;61575;49.908;35.556;2023-02-22T08:36:50;98778.84;;;-2.96;56.91
73338;BME280;61575;49.908;35.556;2023-02-22T08:39:53;98784.28;;;-3.12;56.55
73338;BME280;61575;49.908;35.556;2023-02-22T08:42:57;98776.97;;;-2.81;56.47
73338;BME280;61575;49.908;35.556;2023-02-22T08:45:59;98769.06;;;-2.30;55.05
73338;BME280;61575;49.908;35.556;2023-02-22T08:49:01;98773.38;;;-2.29;54.76
73338;BME280;61575;49.908;35.556;2023-02-22T08:52:03;98775.56;;;-2.11;54.33
73338;BME280;61575;49.908;35.556;2023-02-22T08:55:06;98782.16;;;-2.05;54.88
73338;BME280;61575;49.908;35.556;2023-02-22T08:58:08;98776.63;;;-1.77;54.24
73338;BME280;61575;49.908;35.556;2023-02-22T09:01:10;98771.44;;;-2.02;54.04
73338;BME280;61575;49.908;35.556;2023-02-22T09:04:13;98774.59;;;-2.10;54.95
73338;BME280;61575;49.908;35.556;2023-02-22T09:07:15;98775.78;;;-2.14;54.94
73338;BME280;61575;49.908;35.556;2023-02-22T09:10:22;98778.09;;;-2.22;55.67
73338;BME280;61575;49.908;35.556;2023-02-22T09:13:25;98788.13;;;-2.52;56.13
73338;BME280;61575;49.908;35.556;2023-02-22T09:16:27;98794.22;;;-2.77;57.12
73338;BME280;61575;49.908;35.556;2023-02-22T09:19:29;98791.28;;;-2.60;57.80
73338;BME280;61575;49.908;35.556;2023-02-22T09:22:31;98792.84;;;-2.45;58.03
73338;BME280;61575;49.908;35.556;2023-02-22T09:25:34;98791.59;;;-2.64;57.22
73338;BME280;61575;49.908;35.556;2023-02-22T09:28:36;98793.03;;;-2.22;56.56
73338;BME280;61575;49.908;35.556;2023-02-22T09:31:39;98798.06;;;-1.70;55.55
73338;BME280;61575;49.908;35.556;2023-02-22T09:34:41;98799.16;;;-1.49;55.19
73338;BME280;61575;49.908;35.556;2023-02-22T09:37:46;98799.47;;;-1.77;54.82
73338;BME280;61575;49.908;35.556;2023-02-22T09:40:50;98803.78;;;-1.52;54.09
73338;BME280;61575;49.908;35.556;2023-02-22T09:47:37;98796.66;;;-1.15;53.57
73338;BME280;61575;49.908;35.556;2023-02-22T09:50:43;98793.31;;;-1.17;52.06
73338;BME280;61575;49.908;35.556;2023-02-22T09:53:48;98809.63;;;-1.01;53.07
73338;BME280;61575;49.908;35.556;2023-02-22T09:56:55;98805.25;;;-1.24;51.84
73338;BME280;61575;49.908;35.556;2023-02-22T10:03:35;98809.28;;;-1.55;53.55
73338;BME280;61575;49.908;35.556;2023-02-22T10:06:48;98803.28;;;-1.33;54.32
73338;BME280;61575;49.908;35.556;2023-02-22T10:09:56;98802.94;;;-0.94;54.05
73338;BME280;61575;49.908;35.556;2023-02-22T10:16:44;98797.22;;;-1.23;52.90
73338;BME280;61575;49.908;35.556;2023-02-22T10:20:14;98800.72;;;-1.22;52.61
73338;BME280;61575;49.908;35.556;2023-02-22T10:23:40;98797.53;;;-1.38;51.52
73338;BME280;61575;49.908;35.556;2023-02-22T10:26:45;98800.66;;;-1.33;53.16
73338;BME280;61575;49.908;35.556;2023-02-22T10:30:13;98795.38;;;-1.81;53.07
73338;BME280;61575;49.908;35.556;2023-02-22T10:33:30;98805.94;;;-1.94;54.70
73338;BME280;61575;49.908;35.556;2023-02-22T10:36:32;98798.88;;;-1.57;54.94
73338;BME280;61575;49.908;35.556;2023-02-22T10:39:37;98795.88;;;-1.28;54.16
73338;BME280;61575;49.908;35.556;2023-02-22T10:42:40;98806.38;;;-1.39;53.88
73338;BME280;61575;49.908;35.556;2023-02-22T10:45:42;98801.56;;;-1.46;54.16
73338;BME280;61575;49.908;35.556;2023-02-22T10:48:46;98805.22;;;-1.72;54.58
73338;BME280;61575;49.908;35.556;2023-02-22T10:51:59;98803.84;;;-1.65;54.22
73338;BME280;61575;49.908;35.556;2023-02-22T10:55:02;98809.09;;;-1.65;54.25
73338;BME280;61575;49.908;35.556;2023-02-22T10:58:16;98807.00;;;-2.09;54.22
73338;BME280;61575;49.908;35.556;2023-02-22T11:04:53;98826.53;;;-1.88;53.54
73338;BME280;61575;49.908;35.556;2023-02-22T11:11:24;98822.75;;;-1.84;54.42
73338;BME280;61575;49.908;35.556;2023-02-22T11:14:28;98820.28;;;-2.11;54.29
73338;BME280;61575;49.908;35.556;2023-02-22T11:17:33;98823.88;;;-1.75;54.41
73338;BME280;61575;49.908;35.556;2023-02-22T11:20:38;98833.38;;;-1.49;53.42
73338;BME280;61575;49.908;35.556;2023-02-22T11:23:41;98827.94;;;-1.34;52.94
73338;BME280;61575;49.908;35.556;2023-02-22T11:26:52;98827.59;;;-1.30;52.51
73338;BME280;61575;49.908;35.556;2023-02-22T11:30:09;98829.69;;;-1.46;52.83
73338;BME280;61575;49.908;35.556;2023-02-22T11:36:32;98845.28;;;-1.92;51.70
73338;BME280;61575;49.908;35.556;2023-02-22T11:39:37;98847.63;;;-2.26;53.41
73338;BME280;61575;49.908;35.556;2023-02-22T11:42:45;98846.69;;;-2.37;53.82
73338;BME280;61575;49.908;35.556;2023-02-22T11:46:10;98850.69;;;-2.32;53.13
73338;BME280;61575;49.908;35.556;2023-02-22T11:49:13;98852.88;;;-2.13;53.99
73338;BME280;61575;49.908;35.556;2023-02-22T11:55:30;98850.28;;;-2.26;52.95
73338;BME280;61575;49.908;35.556;2023-02-22T12:22:21;98871.41;;;-2.53;54.01
73338;BME280;61575;49.908;35.556;2023-02-22T12:25:28;98878.56;;;-2.42;54.50
73338;BME280;61575;49.908;35.556;2023-02-22T12:28:50;98879.63;;;-2.32;54.58
73338;BME280;61575;49.908;35.556;2023-02-22T12:32:12;98877.09;;;-2.46;54.29
73338;BME280;61575;49.908;35.556;2023-02-22T12:35:23;98874.66;;;-2.49;54.21
73338;BME280;61575;49.908;35.556;2023-02-22T12:38:36;98890.75;;;-2.54;54.44
73338;BME280;61575;49.908;35.556;2023-02-22T12:41:45;98889.69;;;-2.51;54.40
73338;BME280;61575;49.908;35.556;2023-02-22T12:44:57;98892.09;;;-2.61;54.66
73338;BME280;61575;49.908;35.556;2023-02-22T12:55:32;98904.94;;;-2.56;55.42
73338;BME280;61575;49.908;35.556;2023-02-22T12:58:38;98901.06;;;-2.51;55.19
73338;BME280;61575;49.908;35.556;2023-02-22T13:01:51;98907.56;;;-2.56;55.00
73338;BME280;61575;49.908;35.556;2023-02-22T13:04:56;98907.25;;;-2.52;55.09
73338;BME280;61575;49.908;35.556;2023-02-22T13:24:51;98930.41;;;-2.84;51.97
73338;BME280;61575;49.908;35.556;2023-02-22T13:31:42;98936.53;;;-3.24;48.39
73338;BME280;61575;49.908;35.556;2023-02-22T13:51:33;98954.88;;;-3.51;51.58
73338;BME280;61575;49.908;35.556;2023-02-22T13:54:43;98957.97;;;-3.59;52.29
73338;BME280;61575;49.908;35.556;2023-02-22T13:57:48;98958.16;;;-3.62;52.48
73338;BME280;61575;49.908;35.556;2023-02-22T14:00:53;98961.25;;;-3.69;52.23
73338;BME280;61575;49.908;35.556;2023-02-22T14:17:18;98981.97;;;-3.93;52.92
73338;BME280;61575;49.908;35.556;2023-02-22T14:23:49;98979.88;;;-4.17;51.86
73338;BME280;61575;49.908;35.556;2023-02-22T14:27:12;98980.72;;;-4.16;53.05
73338;BME280;61575;49.908;35.556;2023-02-22T14:30:24;98984.97;;;-4.44;52.58
73338;BME280;61575;49.908;35.556;2023-02-22T14:33:49;98984.91;;;-4.28;52.65
73338;BME280;61575;49.908;35.556;2023-02-22T14:37:02;98996.91;;;-4.24;53.23
73338;BME280;61575;49.908;35.556;2023-02-22T14:40:18;98996.34;;;-4.15;53.66
73338;BME280;61575;49.908;35.556;2023-02-22T14:43:23;99005.88;;;-4.28;53.95
73338;BME280;61575;49.908;35.556;2023-02-22T14:46:28;99012.97;;;-4.30;54.80
73338;BME280;61575;49.908;35.556;2023-02-22T14:49:38;99018.19;;;-4.44;55.04
73338;BME280;61575;49.908;35.556;2023-02-22T14:52:42;99022.75;;;-4.48;54.38
73338;BME280;61575;49.908;35.556;2023-02-22T14:56:08;99031.91;;;-4.71;55.37
73338;BME280;61575;49.908;35.556;2023-02-22T15:02:18;99034.88;;;-4.92;55.51
73338;BME280;61575;49.908;35.556;2023-02-22T15:05:26;99046.28;;;-4.93;55.00
73338;BME280;61575;49.908;35.556;2023-02-22T15:08:31;99040.13;;;-4.92;55.39
73338;BME280;61575;49.908;35.556;2023-02-22T15:11:34;99052.63;;;-4.97;55.48
73338;BME280;61575;49.908;35.556;2023-02-22T15:14:36;99048.66;;;-5.05;55.91
73338;BME280;61575;49.908;35.556;2023-02-22T15:17:39;99056.34;;;-5.17;55.76
73338;BME280;61575;49.908;35.556;2023-02-22T15:20:41;99076.66;;;-5.22;56.21
73338;BME280;61575;49.908;35.556;2023-02-22T15:23:49;99073.13;;;-5.21;56.88
73338;BME280;61575;49.908;35.556;2023-02-22T15:26:53;99084.38;;;-5.19;56.64
73338;BME280;61575;49.908;35.556;2023-02-22T15:30:24;99086.09;;;-5.36;57.50
73338;BME280;61575;49.908;35.556;2023-02-22T15:33:30;99089.47;;;-5.34;57.75
73338;BME280;61575;49.908;35.556;2023-02-22T15:36:41;99092.41;;;-5.40;56.92
73338;BME280;61575;49.908;35.556;2023-02-22T15:39:44;99103.69;;;-5.55;56.92
73338;BME280;61575;49.908;35.556;2023-02-22T15:42:49;99100.75;;;-5.49;57.57
73338;BME280;61575;49.908;35.556;2023-02-22T15:45:54;99108.22;;;-5.58;57.90
73338;BME280;61575;49.908;35.556;2023-02-22T15:52:23;99125.09;;;-5.64;57.14
73338;BME280;61575;49.908;35.556;2023-02-22T15:55:27;99126.78;;;-5.63;57.75
73338;BME280;61575;49.908;35.556;2023-02-22T15:58:30;99136.84;;;-5.73;58.47
73338;BME280;61575;49.908;35.556;2023-02-22T16:01:37;99139.56;;;-5.74;58.36
73338;BME280;61575;49.908;35.556;2023-02-22T16:04:42;99141.56;;;-5.79;58.71
73338;BME280;61575;49.908;35.556;2023-02-22T16:07:58;99149.16;;;-5.75;58.43
73338;BME280;61575;49.908;35.556;2023-02-22T16:11:07;99159.63;;;-5.75;58.71
73338;BME280;61575;49.908;35.556;2023-02-22T16:14:27;99152.84;;;-5.79;58.67
73338;BME280;61575;49.908;35.556;2023-02-22T16:17:36;99154.94;;;-5.85;59.37
73338;BME280;61575;49.908;35.556;2023-02-22T16:20:43;99159.53;;;-5.90;59.18
73338;BME280;61575;49.908;35.556;2023-02-22T16:23:53;99157.31;;;-5.98;59.27
73338;BME280;61575;49.908;35.556;2023-02-22T16:33:25;99173.66;;;-6.12;60.04
73338;BME280;61575;49.908;35.556;2023-02-22T16:36:43;99174.22;;;-6.05;59.64
73338;BME280;61575;49.908;35.556;2023-02-22T16:39:45;99186.19;;;-6.18;60.37
73338;BME280;61575;49.908;35.556;2023-02-22T16:42:47;99182.44;;;-6.13;60.13
73338;BME280;61575;49.908;35.556;2023-02-22T16:45:52;99185.41;;;-6.20;60.58
73338;BME280;61575;49.908;35.556;2023-02-22T16:48:53;99183.50;;;-6.17;60.68
73338;BME280;61575;49.908;35.556;2023-02-22T16:51:58;99185.47;;;-6.22;60.89
73338;BME280;61575;49.908;35.556;2023-02-22T16:55:03;99191.78;;;-6.26;60.98
73338;BME280;61575;49.908;35.556;2023-02-22T16:58:05;99192.25;;;-6.35;60.77
73338;BME280;61575;49.908;35.556;2023-02-22T17:01:08;99192.53;;;-6.24;61.38
73338;BME280;61575;49.908;35.556;2023-02-22T17:04:18;99192.53;;;-6.24;60.45
73338;BME280;61575;49.908;35.556;2023-02-22T17:07:21;99194.31;;;-6.24;60.95
73338;BME280;61575;49.908;35.556;2023-02-22T17:10:32;99198.75;;;-6.26;60.73
73338;BME280;61575;49.908;35.556;2023-02-22T17:13:34;99201.63;;;-6.31;61.07
73338;BME280;61575;49.908;35.556;2023-02-22T17:16:36;99202.69;;;-6.35;60.82
73338;BME280;61575;49.908;35.556;2023-02-22T17:19:38;99196.47;;;-6.33;60.60
73338;BME280;61575;49.908;35.556;2023-02-22T17:22:40;99199.31;;;-6.37;60.89
73338;BME280;61575;49.908;35.556;2023-02-22T17:28:51;99201.00;;;-6.36;61.16
73338;BME280;61575;49.908;35.556;2023-02-22T17:31:53;99208.69;;;-6.33;60.64
73338;BME280;61575;49.908;35.556;2023-02-22T17:34:55;99210.19;;;-6.46;60.52
73338;BME280;61575;49.908;35.556;2023-02-22T17:37:58;99209.97;;;-6.42;60.92
73338;BME280;61575;49.908;35.556;2023-02-22T17:41:01;99214.41;;;-6.44;61.14
73338;BME280;61575;49.908;35.556;2023-02-22T17:44:04;99216.19;;;-6.44;61.05
73338;BME280;61575;49.908;35.556;2023-02-22T17:47:06;99217.03;;;-6.44;61.04
73338;BME280;61575;49.908;35.556;2023-02-22T17:50:10;99209.56;;;-6.51;61.50
73338;BME280;61575;49.908;35.556;2023-02-22T17:53:12;99216.69;;;-6.55;61.77
73338;BME280;61575;49.908;35.556;2023-02-22T17:56:16;99217.09;;;-6.64;61.71
73338;BME280;61575;49.908;35.556;2023-02-22T17:59:20;99219.63;;;-6.62;61.86
73338;BME280;61575;49.908;35.556;2023-02-22T18:02:23;99220.00;;;-6.70;61.93
73338;BME280;61575;49.908;35.556;2023-02-22T18:05:25;99221.47;;;-6.65;61.70
73338;BME280;61575;49.908;35.556;2023-02-22T18:08:28;99219.13;;;-6.71;61.91
73338;BME280;61575;49.908;35.556;2023-02-22T18:11:31;99230.38;;;-6.69;61.86
73338;BME280;61575;49.908;35.556;2023-02-22T18:14:33;99237.28;;;-6.68;62.09
73338;BME280;61575;49.908;35.556;2023-02-22T18:17:36;99236.50;;;-6.70;62.20
73338;BME280;61575;49.908;35.556;2023-02-22T18:20:42;99243.41;;;-6.69;62.60
73338;BME280;61575;49.908;35.556;2023-02-22T18:23:45;99242.63;;;-6.71;62.32
73338;BME280;61575;49.908;35.556;2023-02-22T18:26:46;99246.94;;;-6.70;62.61
73338;BME280;61575;49.908;35.556;2023-02-22T18:29:48;99256.53;;;-6.70;62.78
73338;BME280;61575;49.908;35.556;2023-02-22T18:32:50;99261.06;;;-6.74;62.69
73338;BME280;61575;49.908;35.556;2023-02-22T18:35:52;99261.13;;;-6.75;62.91
73338;BME280;61575;49.908;35.556;2023-02-22T18:38:55;99266.25;;;-6.92;62.76
73338;BME280;61575;49.908;35.556;2023-02-22T18:41:57;99262.84;;;-6.94;62.40